sensor_id;sensor_type;location;lat;lon;timestamp;P1;durP1;ratioP1;P2;durP2;ratioP2
25123;SDS011;13104;51.030;4.686;2022-11-25T00:00:29;19.80;;;3.60;;
25123;SDS011;13104;51.030;4.686;2022-11-25T00:02:55;27.25;;;3.63;;
25123;SDS011;13104;51.030;4.686;2022-11-25T00:05:21;23.58;;;4.20;;
25123;SDS011;13104;51.030;4.686;2022-11-25T00:07:49;22.55;;;3.42;;
25123;SDS011;13104;51.030;4.686;2022-11-25T00:10:16;17.92;;;3.53;;
25123;SDS011;13104;51.030;4.686;2022-11-25T00:12:42;19.35;;;4.25;;
25123;SDS011;13104;51.030;4.686;2022-11-25T00:15:08;20.70;;;3.38;;
25123;SDS011;13104;51.030;4.686;2022-11-25T00:17:34;16.75;;;3.22;;
25123;SDS011;13104;51.030;4.686;2022-11-25T00:20:00;16.92;;;3.63;;
25123;SDS011;13104;51.030;4.686;2022-11-25T00:22:29;15.48;;;3.42;;
25123;SDS011;13104;51.030;4.686;2022-11-25T00:24:56;17.52;;;3.53;;
25123;SDS011;13104;51.030;4.686;2022-11-25T00:27:22;18.88;;;3.30;;
25123;SDS011;13104;51.030;4.686;2022-11-25T00:29:49;14.85;;;3.17;;
25123;SDS011;13104;51.030;4.686;2022-11-25T00:32:15;19.60;;;3.42;;
25123;SDS011;13104;51.030;4.686;2022-11-25T00:34:41;19.42;;;3.60;;
25123;SDS011;13104;51.030;4.686;2022-11-25T00:37:07;18.92;;;3.50;;
25123;SDS011;13104;51.030;4.686;2022-11-25T00:39:33;20.98;;;3.83;;
25123;SDS011;13104;51.030;4.686;2022-11-25T00:41:59;19.73;;;4.03;;
25123;SDS011;13104;51.030;4.686;2022-11-25T00:44:43;18.20;;;3.50;;
25123;SDS011;13104;51.030;4.686;2022-11-25T00:47:11;29.70;;;3.65;;
25123;SDS011;13104;51.030;4.686;2022-11-25T00:49:38;21.20;;;3.20;;
25123;SDS011;13104;51.030;4.686;2022-11-25T00:52:05;22.30;;;3.92;;
25123;SDS011;13104;51.030;4.686;2022-11-25T00:54:32;16.95;;;3.53;;
25123;SDS011;13104;51.030;4.686;2022-11-25T00:56:58;18.20;;;3.63;;
25123;SDS011;13104;51.030;4.686;2022-11-25T00:59:24;19.02;;;3.53;;
25123;SDS011;13104;51.030;4.686;2022-11-25T01:01:50;21.27;;;3.78;;
25123;SDS011;13104;51.030;4.686;2022-11-25T01:04:16;23.90;;;3.67;;
25123;SDS011;13104;51.030;4.686;2022-11-25T01:06:43;24.88;;;4.07;;
25123;SDS011;13104;51.030;4.686;2022-11-25T01:09:09;16.88;;;2.85;;
25123;SDS011;13104;51.030;4.686;2022-11-25T01:11:36;11.93;;;2.47;;
25123;SDS011;13104;51.030;4.686;2022-11-25T01:14:03;10.77;;;2.28;;
25123;SDS011;13104;51.030;4.686;2022-11-25T01:16:29;16.48;;;2.63;;
25123;SDS011;13104;51.030;4.686;2022-11-25T01:18:56;11.07;;;1.73;;
25123;SDS011;13104;51.030;4.686;2022-11-25T01:21:23;9.02;;;1.90;;
25123;SDS011;13104;51.030;4.686;2022-11-25T01:23:50;10.13;;;1.75;;
25123;SDS011;13104;51.030;4.686;2022-11-25T01:26:20;9.90;;;1.83;;
25123;SDS011;13104;51.030;4.686;2022-11-25T01:28:46;9.77;;;2.10;;
25123;SDS011;13104;51.030;4.686;2022-11-25T01:31:14;8.63;;;1.80;;
25123;SDS011;13104;51.030;4.686;2022-11-25T01:33:41;6.65;;;1.63;;
25123;SDS011;13104;51.030;4.686;2022-11-25T01:36:09;9.20;;;1.60;;
25123;SDS011;13104;51.030;4.686;2022-11-25T01:38:35;12.88;;;1.98;;
25123;SDS011;13104;51.030;4.686;2022-11-25T01:41:02;7.10;;;1.77;;
25123;SDS011;13104;51.030;4.686;2022-11-25T01:43:29;8.68;;;1.70;;
25123;SDS011;13104;51.030;4.686;2022-11-25T01:46:06;7.75;;;1.60;;
25123;SDS011;13104;51.030;4.686;2022-11-25T01:48:46;10.48;;;1.85;;
25123;SDS011;13104;51.030;4.686;2022-11-25T01:51:56;6.68;;;1.50;;
25123;SDS011;13104;51.030;4.686;2022-11-25T01:54:02;11.25;;;1.75;;
25123;SDS011;13104;51.030;4.686;2022-11-25T01:56:31;9.63;;;1.30;;
25123;SDS011;13104;51.030;4.686;2022-11-25T01:58:58;6.03;;;1.77;;
25123;SDS011;13104;51.030;4.686;2022-11-25T02:01:24;9.68;;;1.40;;
25123;SDS011;13104;51.030;4.686;2022-11-25T02:03:50;4.47;;;1.33;;
25123;SDS011;13104;51.030;4.686;2022-11-25T02:06:20;8.57;;;1.55;;
25123;SDS011;13104;51.030;4.686;2022-11-25T02:08:48;4.18;;;1.20;;
25123;SDS011;13104;51.030;4.686;2022-11-25T02:11:15;4.80;;;1.02;;
25123;SDS011;13104;51.030;4.686;2022-11-25T02:13:42;7.10;;;1.63;;
25123;SDS011;13104;51.030;4.686;2022-11-25T02:16:10;5.95;;;1.05;;
25123;SDS011;13104;51.030;4.686;2022-11-25T02:18:36;4.15;;;1.38;;
25123;SDS011;13104;51.030;4.686;2022-11-25T02:21:02;2.55;;;0.98;;
25123;SDS011;13104;51.030;4.686;2022-11-25T02:23:55;5.38;;;1.05;;
25123;SDS011;13104;51.030;4.686;2022-11-25T02:26:17;3.10;;;1.08;;
25123;SDS011;13104;51.030;4.686;2022-11-25T02:28:44;3.75;;;1.08;;
25123;SDS011;13104;51.030;4.686;2022-11-25T02:31:11;4.38;;;1.10;;
25123;SDS011;13104;51.030;4.686;2022-11-25T02:33:37;5.15;;;1.20;;
25123;SDS011;13104;51.030;4.686;2022-11-25T02:36:04;9.15;;;1.20;;
25123;SDS011;13104;51.030;4.686;2022-11-25T02:38:38;5.10;;;1.20;;
25123;SDS011;13104;51.030;4.686;2022-11-25T02:41:26;4.40;;;1.00;;
25123;SDS011;13104;51.030;4.686;2022-11-25T02:43:53;4.68;;;1.17;;
25123;SDS011;13104;51.030;4.686;2022-11-25T02:46:21;4.28;;;1.27;;
25123;SDS011;13104;51.030;4.686;2022-11-25T02:48:48;3.63;;;0.88;;
25123;SDS011;13104;51.030;4.686;2022-11-25T02:51:16;6.65;;;1.40;;
25123;SDS011;13104;51.030;4.686;2022-11-25T02:53:43;4.72;;;0.93;;
25123;SDS011;13104;51.030;4.686;2022-11-25T02:56:10;2.30;;;1.10;;
25123;SDS011;13104;51.030;4.686;2022-11-25T02:58:36;3.38;;;0.95;;
25123;SDS011;13104;51.030;4.686;2022-11-25T03:01:03;4.75;;;1.02;;
25123;SDS011;13104;51.030;4.686;2022-11-25T03:03:29;3.58;;;1.23;;
25123;SDS011;13104;51.030;4.686;2022-11-25T03:05:55;3.40;;;1.08;;
25123;SDS011;13104;51.030;4.686;2022-11-25T03:08:21;4.93;;;0.90;;
25123;SDS011;13104;51.030;4.686;2022-11-25T03:10:48;4.55;;;1.00;;
25123;SDS011;13104;51.030;4.686;2022-11-25T03:13:14;3.75;;;1.02;;
25123;SDS011;13104;51.030;4.686;2022-11-25T03:15:40;5.45;;;1.23;;
25123;SDS011;13104;51.030;4.686;2022-11-25T03:18:06;2.53;;;1.00;;
25123;SDS011;13104;51.030;4.686;2022-11-25T03:20:33;4.78;;;1.05;;
25123;SDS011;13104;51.030;4.686;2022-11-25T03:22:59;4.03;;;1.02;;
25123;SDS011;13104;51.030;4.686;2022-11-25T03:25:25;2.38;;;0.60;;
25123;SDS011;13104;51.030;4.686;2022-11-25T03:27:51;5.32;;;0.93;;
25123;SDS011;13104;51.030;4.686;2022-11-25T03:30:22;2.85;;;1.00;;
25123;SDS011;13104;51.030;4.686;2022-11-25T03:32:49;1.85;;;0.80;;
25123;SDS011;13104;51.030;4.686;2022-11-25T03:35:15;3.47;;;1.05;;
25123;SDS011;13104;51.030;4.686;2022-11-25T03:37:41;2.13;;;0.75;;
25123;SDS011;13104;51.030;4.686;2022-11-25T03:40:08;2.13;;;0.75;;
25123;SDS011;13104;51.030;4.686;2022-11-25T03:42:35;2.33;;;0.90;;
25123;SDS011;13104;51.030;4.686;2022-11-25T03:45:01;4.40;;;0.82;;
25123;SDS011;13104;51.030;4.686;2022-11-25T03:47:28;3.60;;;1.02;;
25123;SDS011;13104;51.030;4.686;2022-11-25T03:49:54;3.50;;;1.00;;
25123;SDS011;13104;51.030;4.686;2022-11-25T03:52:20;4.40;;;1.13;;
25123;SDS011;13104;51.030;4.686;2022-11-25T03:54:47;4.82;;;1.38;;
25123;SDS011;13104;51.030;4.686;2022-11-25T03:57:13;1.65;;;0.80;;
25123;SDS011;13104;51.030;4.686;2022-11-25T03:59:39;3.65;;;1.00;;
25123;SDS011;13104;51.030;4.686;2022-11-25T04:02:05;6.50;;;1.23;;
25123;SDS011;13104;51.030;4.686;2022-11-25T04:04:32;5.50;;;1.33;;
25123;SDS011;13104;51.030;4.686;2022-11-25T04:06:58;4.50;;;1.10;;
25123;SDS011;13104;51.030;4.686;2022-11-25T04:09:24;4.00;;;1.23;;
25123;SDS011;13104;51.030;4.686;2022-11-25T04:11:50;5.28;;;1.27;;
25123;SDS011;13104;51.030;4.686;2022-11-25T04:14:35;4.35;;;1.33;;
25123;SDS011;13104;51.030;4.686;2022-11-25T04:17:02;5.80;;;1.30;;
25123;SDS011;13104;51.030;4.686;2022-11-25T04:19:28;8.48;;;1.80;;
25123;SDS011;13104;51.030;4.686;2022-11-25T04:21:54;8.43;;;1.92;;
25123;SDS011;13104;51.030;4.686;2022-11-25T04:24:23;6.53;;;1.70;;
25123;SDS011;13104;51.030;4.686;2022-11-25T04:26:49;7.78;;;1.75;;
25123;SDS011;13104;51.030;4.686;2022-11-25T04:29:16;7.15;;;2.03;;
25123;SDS011;13104;51.030;4.686;2022-11-25T04:31:42;5.22;;;1.50;;
25123;SDS011;13104;51.030;4.686;2022-11-25T04:34:09;9.45;;;2.15;;
25123;SDS011;13104;51.030;4.686;2022-11-25T04:36:35;14.02;;;2.30;;
25123;SDS011;13104;51.030;4.686;2022-11-25T04:39:01;7.35;;;1.88;;
25123;SDS011;13104;51.030;4.686;2022-11-25T04:41:27;5.68;;;1.83;;
25123;SDS011;13104;51.030;4.686;2022-11-25T04:43:53;11.80;;;2.15;;
25123;SDS011;13104;51.030;4.686;2022-11-25T04:46:22;9.20;;;1.70;;
25123;SDS011;13104;51.030;4.686;2022-11-25T04:48:49;8.15;;;1.92;;
25123;SDS011;13104;51.030;4.686;2022-11-25T04:51:16;8.40;;;1.70;;
25123;SDS011;13104;51.030;4.686;2022-11-25T04:53:42;6.50;;;1.70;;
25123;SDS011;13104;51.030;4.686;2022-11-25T04:56:11;11.15;;;2.20;;
25123;SDS011;13104;51.030;4.686;2022-11-25T04:58:40;8.48;;;2.42;;
25123;SDS011;13104;51.030;4.686;2022-11-25T05:01:25;7.05;;;1.90;;
25123;SDS011;13104;51.030;4.686;2022-11-25T05:03:51;7.88;;;2.05;;
25123;SDS011;13104;51.030;4.686;2022-11-25T05:06:17;11.10;;;2.25;;
25123;SDS011;13104;51.030;4.686;2022-11-25T05:08:46;14.02;;;2.25;;
25123;SDS011;13104;51.030;4.686;2022-11-25T05:11:13;8.70;;;2.05;;
25123;SDS011;13104;51.030;4.686;2022-11-25T05:13:40;8.07;;;2.08;;
25123;SDS011;13104;51.030;4.686;2022-11-25T05:16:06;11.90;;;2.13;;
25123;SDS011;13104;51.030;4.686;2022-11-25T05:18:32;12.52;;;2.33;;
25123;SDS011;13104;51.030;4.686;2022-11-25T05:21:02;9.52;;;2.10;;
25123;SDS011;13104;51.030;4.686;2022-11-25T05:23:28;7.95;;;2.13;;
25123;SDS011;13104;51.030;4.686;2022-11-25T05:25:58;12.10;;;2.92;;
25123;SDS011;13104;51.030;4.686;2022-11-25T05:28:25;7.80;;;1.95;;
25123;SDS011;13104;51.030;4.686;2022-11-25T05:30:51;14.90;;;2.53;;
25123;SDS011;13104;51.030;4.686;2022-11-25T05:33:18;9.68;;;2.50;;
25123;SDS011;13104;51.030;4.686;2022-11-25T05:35:51;11.95;;;2.88;;
25123;SDS011;13104;51.030;4.686;2022-11-25T05:38:18;11.10;;;2.08;;
25123;SDS011;13104;51.030;4.686;2022-11-25T05:40:44;15.55;;;2.40;;
25123;SDS011;13104;51.030;4.686;2022-11-25T05:43:10;8.32;;;2.28;;
25123;SDS011;13104;51.030;4.686;2022-11-25T05:45:37;13.88;;;2.05;;
25123;SDS011;13104;51.030;4.686;2022-11-25T05:48:03;9.48;;;2.47;;
25123;SDS011;13104;51.030;4.686;2022-11-25T05:50:30;11.18;;;2.53;;
25123;SDS011;13104;51.030;4.686;2022-11-25T05:52:56;16.02;;;3.13;;
25123;SDS011;13104;51.030;4.686;2022-11-25T05:55:22;6.80;;;2.20;;
25123;SDS011;13104;51.030;4.686;2022-11-25T05:57:48;11.13;;;2.47;;
25123;SDS011;13104;51.030;4.686;2022-11-25T06:00:15;11.95;;;2.33;;
25123;SDS011;13104;51.030;4.686;2022-11-25T06:02:41;10.82;;;2.42;;
25123;SDS011;13104;51.030;4.686;2022-11-25T06:05:07;11.32;;;2.45;;
25123;SDS011;13104;51.030;4.686;2022-11-25T06:07:33;13.02;;;2.88;;
25123;SDS011;13104;51.030;4.686;2022-11-25T06:09:59;10.07;;;2.33;;
25123;SDS011;13104;51.030;4.686;2022-11-25T06:12:25;15.82;;;3.28;;
25123;SDS011;13104;51.030;4.686;2022-11-25T06:14:51;11.95;;;2.83;;
25123;SDS011;13104;51.030;4.686;2022-11-25T06:17:17;9.40;;;2.85;;
25123;SDS011;13104;51.030;4.686;2022-11-25T06:19:44;13.95;;;2.85;;
25123;SDS011;13104;51.030;4.686;2022-11-25T06:22:11;12.73;;;2.90;;
25123;SDS011;13104;51.030;4.686;2022-11-25T06:24:38;12.52;;;2.50;;
25123;SDS011;13104;51.030;4.686;2022-11-25T06:27:04;10.45;;;2.38;;
25123;SDS011;13104;51.030;4.686;2022-11-25T06:29:30;9.85;;;2.70;;
25123;SDS011;13104;51.030;4.686;2022-11-25T06:31:57;12.73;;;2.72;;
25123;SDS011;13104;51.030;4.686;2022-11-25T06:34:23;9.73;;;2.45;;
25123;SDS011;13104;51.030;4.686;2022-11-25T06:36:49;15.43;;;2.78;;
25123;SDS011;13104;51.030;4.686;2022-11-25T06:39:15;10.02;;;2.50;;
25123;SDS011;13104;51.030;4.686;2022-11-25T06:41:41;9.65;;;2.70;;
25123;SDS011;13104;51.030;4.686;2022-11-25T06:44:07;16.88;;;2.65;;
25123;SDS011;13104;51.030;4.686;2022-11-25T06:46:33;9.85;;;2.45;;
25123;SDS011;13104;51.030;4.686;2022-11-25T06:48:59;14.57;;;3.00;;
25123;SDS011;13104;51.030;4.686;2022-11-25T06:51:25;9.75;;;2.70;;
25123;SDS011;13104;51.030;4.686;2022-11-25T06:53:52;9.75;;;2.90;;
25123;SDS011;13104;51.030;4.686;2022-11-25T06:56:20;11.43;;;2.25;;
25123;SDS011;13104;51.030;4.686;2022-11-25T06:58:46;19.70;;;2.83;;
25123;SDS011;13104;51.030;4.686;2022-11-25T07:01:14;11.07;;;2.88;;
25123;SDS011;13104;51.030;4.686;2022-11-25T07:03:40;10.98;;;2.92;;
25123;SDS011;13104;51.030;4.686;2022-11-25T07:06:07;12.32;;;2.88;;
25123;SDS011;13104;51.030;4.686;2022-11-25T07:08:33;10.20;;;2.90;;
25123;SDS011;13104;51.030;4.686;2022-11-25T07:13:42;13.57;;;3.22;;
25123;SDS011;13104;51.030;4.686;2022-11-25T07:16:09;9.38;;;2.65;;
25123;SDS011;13104;51.030;4.686;2022-11-25T07:18:35;14.50;;;2.70;;
25123;SDS011;13104;51.030;4.686;2022-11-25T07:21:03;16.77;;;3.30;;
25123;SDS011;13104;51.030;4.686;2022-11-25T07:23:29;14.15;;;3.33;;
25123;SDS011;13104;51.030;4.686;2022-11-25T07:25:59;18.42;;;3.95;;
25123;SDS011;13104;51.030;4.686;2022-11-25T07:28:26;14.82;;;3.45;;
25123;SDS011;13104;51.030;4.686;2022-11-25T07:30:52;14.90;;;3.33;;
25123;SDS011;13104;51.030;4.686;2022-11-25T07:33:19;11.02;;;3.03;;
25123;SDS011;13104;51.030;4.686;2022-11-25T07:35:45;17.98;;;3.65;;
25123;SDS011;13104;51.030;4.686;2022-11-25T07:38:11;13.90;;;4.03;;
25123;SDS011;13104;51.030;4.686;2022-11-25T07:40:37;15.60;;;3.40;;
25123;SDS011;13104;51.030;4.686;2022-11-25T07:43:03;16.35;;;3.65;;
25123;SDS011;13104;51.030;4.686;2022-11-25T07:45:29;19.67;;;3.83;;
25123;SDS011;13104;51.030;4.686;2022-11-25T07:47:55;18.42;;;3.35;;
25123;SDS011;13104;51.030;4.686;2022-11-25T07:50:22;22.25;;;4.63;;
25123;SDS011;13104;51.030;4.686;2022-11-25T07:52:48;19.98;;;3.80;;
25123;SDS011;13104;51.030;4.686;2022-11-25T07:55:14;14.43;;;3.45;;
25123;SDS011;13104;51.030;4.686;2022-11-25T07:57:40;18.33;;;3.95;;
25123;SDS011;13104;51.030;4.686;2022-11-25T08:00:07;16.10;;;3.38;;
25123;SDS011;13104;51.030;4.686;2022-11-25T08:02:33;17.55;;;4.47;;
25123;SDS011;13104;51.030;4.686;2022-11-25T08:04:59;21.25;;;4.40;;
25123;SDS011;13104;51.030;4.686;2022-11-25T08:07:25;29.48;;;4.00;;
25123;SDS011;13104;51.030;4.686;2022-11-25T08:09:51;15.43;;;4.45;;
25123;SDS011;13104;51.030;4.686;2022-11-25T08:12:18;22.05;;;4.68;;
25123;SDS011;13104;51.030;4.686;2022-11-25T08:14:44;19.92;;;4.60;;
25123;SDS011;13104;51.030;4.686;2022-11-25T08:17:10;21.08;;;4.50;;
25123;SDS011;13104;51.030;4.686;2022-11-25T08:19:36;13.63;;;3.65;;
25123;SDS011;13104;51.030;4.686;2022-11-25T08:22:04;21.25;;;3.97;;
25123;SDS011;13104;51.030;4.686;2022-11-25T08:24:30;20.77;;;4.20;;
25123;SDS011;13104;51.030;4.686;2022-11-25T08:26:57;20.17;;;4.00;;
25123;SDS011;13104;51.030;4.686;2022-11-25T08:29:25;22.25;;;3.70;;
25123;SDS011;13104;51.030;4.686;2022-11-25T08:31:51;22.98;;;4.90;;
25123;SDS011;13104;51.030;4.686;2022-11-25T08:34:18;19.77;;;3.97;;
25123;SDS011;13104;51.030;4.686;2022-11-25T08:36:44;19.00;;;3.88;;
25123;SDS011;13104;51.030;4.686;2022-11-25T08:39:11;20.10;;;3.50;;
25123;SDS011;13104;51.030;4.686;2022-11-25T08:41:37;19.25;;;4.63;;
25123;SDS011;13104;51.030;4.686;2022-11-25T08:44:04;23.95;;;4.97;;
25123;SDS011;13104;51.030;4.686;2022-11-25T08:46:32;24.67;;;4.07;;
25123;SDS011;13104;51.030;4.686;2022-11-25T08:49:00;23.75;;;4.97;;
25123;SDS011;13104;51.030;4.686;2022-11-25T08:51:28;21.45;;;4.10;;
25123;SDS011;13104;51.030;4.686;2022-11-25T08:53:54;25.65;;;4.25;;
25123;SDS011;13104;51.030;4.686;2022-11-25T08:56:22;20.20;;;3.95;;
25123;SDS011;13104;51.030;4.686;2022-11-25T08:58:48;22.98;;;4.72;;
25123;SDS011;13104;51.030;4.686;2022-11-25T09:01:14;18.80;;;4.22;;
25123;SDS011;13104;51.030;4.686;2022-11-25T09:03:41;23.30;;;4.50;;
25123;SDS011;13104;51.030;4.686;2022-11-25T09:06:08;19.27;;;5.13;;
25123;SDS011;13104;51.030;4.686;2022-11-25T09:08:34;17.55;;;4.90;;
25123;SDS011;13104;51.030;4.686;2022-11-25T09:11:01;28.10;;;5.38;;
25123;SDS011;13104;51.030;4.686;2022-11-25T09:13:27;17.58;;;4.88;;
25123;SDS011;13104;51.030;4.686;2022-11-25T09:15:54;19.35;;;4.28;;
25123;SDS011;13104;51.030;4.686;2022-11-25T09:18:20;17.02;;;4.53;;
25123;SDS011;13104;51.030;4.686;2022-11-25T09:20:50;26.55;;;5.15;;
25123;SDS011;13104;51.030;4.686;2022-11-25T09:23:16;19.10;;;5.38;;
25123;SDS011;13104;51.030;4.686;2022-11-25T09:25:49;22.52;;;6.10;;
25123;SDS011;13104;51.030;4.686;2022-11-25T09:28:16;15.82;;;5.45;;
25123;SDS011;13104;51.030;4.686;2022-11-25T09:30:42;17.60;;;5.03;;
25123;SDS011;13104;51.030;4.686;2022-11-25T09:33:08;21.02;;;5.18;;
25123;SDS011;13104;51.030;4.686;2022-11-25T09:35:35;17.92;;;4.45;;
25123;SDS011;13104;51.030;4.686;2022-11-25T09:38:01;27.50;;;5.03;;
25123;SDS011;13104;51.030;4.686;2022-11-25T09:40:34;18.77;;;4.85;;
25123;SDS011;13104;51.030;4.686;2022-11-25T09:43:06;21.73;;;4.65;;
25123;SDS011;13104;51.030;4.686;2022-11-25T09:46:38;26.00;;;5.22;;
25123;SDS011;13104;51.030;4.686;2022-11-25T09:56:50;12.23;;;3.95;;
25123;SDS011;13104;51.030;4.686;2022-11-25T09:59:23;16.90;;;4.00;;
25123;SDS011;13104;51.030;4.686;2022-11-25T10:01:53;16.17;;;3.50;;
25123;SDS011;13104;51.030;4.686;2022-11-25T10:04:24;17.40;;;4.10;;
25123;SDS011;13104;51.030;4.686;2022-11-25T10:06:52;18.92;;;3.95;;
25123;SDS011;13104;51.030;4.686;2022-11-25T10:09:25;16.25;;;3.80;;
25123;SDS011;13104;51.030;4.686;2022-11-25T10:11:55;10.00;;;3.00;;
25123;SDS011;13104;51.030;4.686;2022-11-25T10:14:27;15.57;;;3.55;;
25123;SDS011;13104;51.030;4.686;2022-11-25T10:17:02;17.20;;;3.30;;
25123;SDS011;13104;51.030;4.686;2022-11-25T10:22:01;7.53;;;2.83;;
25123;SDS011;13104;51.030;4.686;2022-11-25T10:24:35;10.80;;;3.25;;
25123;SDS011;13104;51.030;4.686;2022-11-25T10:27:03;9.07;;;2.72;;
25123;SDS011;13104;51.030;4.686;2022-11-25T10:29:31;14.95;;;3.00;;
25123;SDS011;13104;51.030;4.686;2022-11-25T10:32:20;11.23;;;2.88;;
25123;SDS011;13104;51.030;4.686;2022-11-25T10:34:48;13.63;;;2.78;;
25123;SDS011;13104;51.030;4.686;2022-11-25T10:37:19;12.25;;;2.80;;
25123;SDS011;13104;51.030;4.686;2022-11-25T10:39:47;11.18;;;2.47;;
25123;SDS011;13104;51.030;4.686;2022-11-25T10:42:14;8.02;;;2.80;;
25123;SDS011;13104;51.030;4.686;2022-11-25T10:44:43;11.18;;;3.40;;
25123;SDS011;13104;51.030;4.686;2022-11-25T10:52:31;7.65;;;1.90;;
25123;SDS011;13104;51.030;4.686;2022-11-25T10:57:33;10.63;;;2.85;;
25123;SDS011;13104;51.030;4.686;2022-11-25T10:59:59;16.35;;;3.60;;
25123;SDS011;13104;51.030;4.686;2022-11-25T11:02:26;12.30;;;2.85;;
25123;SDS011;13104;51.030;4.686;2022-11-25T11:07:19;14.45;;;3.40;;
25123;SDS011;13104;51.030;4.686;2022-11-25T11:09:46;8.38;;;2.53;;
25123;SDS011;13104;51.030;4.686;2022-11-25T11:12:14;9.65;;;2.42;;
25123;SDS011;13104;51.030;4.686;2022-11-25T11:14:42;7.25;;;2.35;;
25123;SDS011;13104;51.030;4.686;2022-11-25T11:17:20;5.50;;;2.20;;
25123;SDS011;13104;51.030;4.686;2022-11-25T11:20:01;10.23;;;2.38;;
25123;SDS011;13104;51.030;4.686;2022-11-25T11:22:29;8.10;;;2.10;;
25123;SDS011;13104;51.030;4.686;2022-11-25T11:25:06;12.20;;;2.70;;
25123;SDS011;13104;51.030;4.686;2022-11-25T11:27:35;9.23;;;2.25;;
25123;SDS011;13104;51.030;4.686;2022-11-25T11:30:09;8.55;;;2.38;;
25123;SDS011;13104;51.030;4.686;2022-11-25T11:32:40;12.90;;;3.17;;
25123;SDS011;13104;51.030;4.686;2022-11-25T11:35:17;12.25;;;2.65;;
25123;SDS011;13104;51.030;4.686;2022-11-25T11:37:45;10.05;;;2.60;;
25123;SDS011;13104;51.030;4.686;2022-11-25T11:43:15;10.68;;;2.85;;
25123;SDS011;13104;51.030;4.686;2022-11-25T11:45:58;12.98;;;3.15;;
25123;SDS011;13104;51.030;4.686;2022-11-25T11:48:32;9.95;;;2.70;;
25123;SDS011;13104;51.030;4.686;2022-11-25T11:51:13;8.23;;;2.42;;
25123;SDS011;13104;51.030;4.686;2022-11-25T12:03:58;16.20;;;3.42;;
25123;SDS011;13104;51.030;4.686;2022-11-25T12:06:26;13.95;;;3.17;;
25123;SDS011;13104;51.030;4.686;2022-11-25T12:08:54;12.52;;;2.55;;
25123;SDS011;13104;51.030;4.686;2022-11-25T12:11:28;11.32;;;2.80;;
25123;SDS011;13104;51.030;4.686;2022-11-25T12:13:59;12.88;;;2.75;;
25123;SDS011;13104;51.030;4.686;2022-11-25T12:16:32;10.07;;;2.83;;
25123;SDS011;13104;51.030;4.686;2022-11-25T12:19:05;13.13;;;2.80;;
25123;SDS011;13104;51.030;4.686;2022-11-25T12:26:43;14.55;;;3.05;;
25123;SDS011;13104;51.030;4.686;2022-11-25T12:29:12;11.77;;;3.13;;
25123;SDS011;13104;51.030;4.686;2022-11-25T12:31:42;10.52;;;2.60;;
25123;SDS011;13104;51.030;4.686;2022-11-25T12:34:11;15.93;;;2.90;;
25123;SDS011;13104;51.030;4.686;2022-11-25T12:36:40;13.45;;;2.88;;
25123;SDS011;13104;51.030;4.686;2022-11-25T12:39:27;13.75;;;2.80;;
25123;SDS011;13104;51.030;4.686;2022-11-25T12:41:58;12.80;;;2.70;;
25123;SDS011;13104;51.030;4.686;2022-11-25T12:46:53;18.08;;;3.40;;
25123;SDS011;13104;51.030;4.686;2022-11-25T12:49:24;12.07;;;2.92;;
25123;SDS011;13104;51.030;4.686;2022-11-25T13:15:43;16.25;;;3.70;;
25123;SDS011;13104;51.030;4.686;2022-11-25T13:18:11;15.27;;;3.22;;
25123;SDS011;13104;51.030;4.686;2022-11-25T13:20:41;14.93;;;3.50;;
25123;SDS011;13104;51.030;4.686;2022-11-25T13:25:40;21.20;;;3.97;;
25123;SDS011;13104;51.030;4.686;2022-11-25T13:30:52;22.73;;;3.80;;
25123;SDS011;13104;51.030;4.686;2022-11-25T13:35:50;18.80;;;3.67;;
25123;SDS011;13104;51.030;4.686;2022-11-25T13:41:03;17.92;;;3.70;;
25123;SDS011;13104;51.030;4.686;2022-11-25T13:43:56;20.85;;;3.88;;
25123;SDS011;13104;51.030;4.686;2022-11-25T13:46:56;15.80;;;3.85;;
25123;SDS011;13104;51.030;4.686;2022-11-25T13:50:04;21.70;;;5.72;;
25123;SDS011;13104;51.030;4.686;2022-11-25T13:52:22;23.70;;;6.00;;
25123;SDS011;13104;51.030;4.686;2022-11-25T13:54:52;17.55;;;3.67;;
25123;SDS011;13104;51.030;4.686;2022-11-25T13:59:50;25.35;;;4.55;;
25123;SDS011;13104;51.030;4.686;2022-11-25T14:05:01;28.50;;;4.15;;
25123;SDS011;13104;51.030;4.686;2022-11-25T14:22:55;13.30;;;3.97;;
25123;SDS011;13104;51.030;4.686;2022-11-25T14:25:36;16.42;;;3.80;;
25123;SDS011;13104;51.030;4.686;2022-11-25T14:30:43;18.52;;;3.25;;
25123;SDS011;13104;51.030;4.686;2022-11-25T14:33:10;16.98;;;4.32;;
25123;SDS011;13104;51.030;4.686;2022-11-25T14:35:40;14.57;;;3.38;;
25123;SDS011;13104;51.030;4.686;2022-11-25T14:38:11;14.07;;;3.72;;
25123;SDS011;13104;51.030;4.686;2022-11-25T14:40:48;20.52;;;5.32;;
25123;SDS011;13104;51.030;4.686;2022-11-25T14:43:17;14.60;;;4.63;;
25123;SDS011;13104;51.030;4.686;2022-11-25T14:45:45;15.07;;;3.97;;
25123;SDS011;13104;51.030;4.686;2022-11-25T14:48:12;21.75;;;4.32;;
25123;SDS011;13104;51.030;4.686;2022-11-25T14:50:38;27.08;;;4.50;;
25123;SDS011;13104;51.030;4.686;2022-11-25T14:53:06;17.60;;;3.67;;
25123;SDS011;13104;51.030;4.686;2022-11-25T14:55:33;25.92;;;4.50;;
25123;SDS011;13104;51.030;4.686;2022-11-25T14:58:00;18.95;;;4.75;;
25123;SDS011;13104;51.030;4.686;2022-11-25T15:00:26;24.83;;;5.38;;
25123;SDS011;13104;51.030;4.686;2022-11-25T15:05:20;32.13;;;8.48;;
25123;SDS011;13104;51.030;4.686;2022-11-25T15:07:58;24.55;;;5.80;;
25123;SDS011;13104;51.030;4.686;2022-11-25T15:15:45;21.48;;;5.22;;
25123;SDS011;13104;51.030;4.686;2022-11-25T15:18:14;19.73;;;5.45;;
25123;SDS011;13104;51.030;4.686;2022-11-25T15:20:44;20.40;;;4.32;;
25123;SDS011;13104;51.030;4.686;2022-11-25T15:23:11;23.30;;;4.88;;
25123;SDS011;13104;51.030;4.686;2022-11-25T15:25:51;24.05;;;5.00;;
25123;SDS011;13104;51.030;4.686;2022-11-25T15:28:17;30.30;;;5.65;;
25123;SDS011;13104;51.030;4.686;2022-11-25T15:30:54;19.90;;;4.97;;
25123;SDS011;13104;51.030;4.686;2022-11-25T15:33:21;28.95;;;6.65;;
25123;SDS011;13104;51.030;4.686;2022-11-25T15:35:48;19.48;;;5.55;;
25123;SDS011;13104;51.030;4.686;2022-11-25T15:38:36;27.17;;;6.35;;
25123;SDS011;13104;51.030;4.686;2022-11-25T15:41:05;21.92;;;5.90;;
25123;SDS011;13104;51.030;4.686;2022-11-25T15:43:31;27.67;;;6.47;;
25123;SDS011;13104;51.030;4.686;2022-11-25T15:46:00;22.15;;;6.85;;
25123;SDS011;13104;51.030;4.686;2022-11-25T15:48:37;27.05;;;6.03;;
25123;SDS011;13104;51.030;4.686;2022-11-25T15:51:17;20.52;;;5.25;;
25123;SDS011;13104;51.030;4.686;2022-11-25T15:53:45;27.05;;;5.97;;
25123;SDS011;13104;51.030;4.686;2022-11-25T15:56:17;28.40;;;6.60;;
25123;SDS011;13104;51.030;4.686;2022-11-25T15:58:45;21.48;;;5.18;;
25123;SDS011;13104;51.030;4.686;2022-11-25T16:03:41;16.50;;;5.45;;
25123;SDS011;13104;51.030;4.686;2022-11-25T16:06:50;27.30;;;6.47;;
25123;SDS011;13104;51.030;4.686;2022-11-25T16:09:00;29.40;;;8.40;;
25123;SDS011;13104;51.030;4.686;2022-11-25T16:11:28;35.25;;;10.60;;
25123;SDS011;13104;51.030;4.686;2022-11-25T16:14:17;38.58;;;10.65;;
25123;SDS011;13104;51.030;4.686;2022-11-25T16:16:43;58.42;;;15.73;;
25123;SDS011;13104;51.030;4.686;2022-11-25T16:19:12;45.40;;;13.50;;
25123;SDS011;13104;51.030;4.686;2022-11-25T16:21:55;44.47;;;11.52;;
25123;SDS011;13104;51.030;4.686;2022-11-25T16:27:03;24.77;;;6.75;;
25123;SDS011;13104;51.030;4.686;2022-11-25T16:29:35;24.83;;;6.72;;
25123;SDS011;13104;51.030;4.686;2022-11-25T16:32:09;26.15;;;7.38;;
25123;SDS011;13104;51.030;4.686;2022-11-25T16:34:37;28.50;;;7.10;;
25123;SDS011;13104;51.030;4.686;2022-11-25T16:37:03;24.70;;;5.93;;
25123;SDS011;13104;51.030;4.686;2022-11-25T16:39:29;26.10;;;7.00;;
25123;SDS011;13104;51.030;4.686;2022-11-25T16:41:59;20.50;;;5.97;;